Time;durP1;ratioP1;P1;durP2;ratioP2;P2;SDS_P1;SDS_P2;PMS_P1;PMS_P2;Temp;Humidity;BMP_temperature;BMP_pressure;BME280_temperature;BME280_humidity;BME280_pressure;Samples;Min_cycle;Max_cycle;Signal;HPM_P1;HPM_P2
2022/12/19 00:04:37;;;;;;;;;;;16.00;55.10;;;;;;10211097;28;93586;-63
2022/12/19 00:09:38;;;;;;;;;;;16.00;55.30;;;;;;10209335;28;96853;-63
2022/12/19 00:14:40;;;;;;;;;;;15.90;55.20;;;;;;10211956;28;92859;-63
2022/12/19 00:19:42;;;;;;;;;;;16.00;55.30;;;;;;10212028;28;94442;-63
2022/12/19 00:24:44;;;;;;;;;;;15.90;55.30;;;;;;10211356;28;93416;-63
2022/12/19 00:29:46;;;;;;;;;;;15.90;55.20;;;;;;10211690;28;94468;-62
2022/12/19 00:34:48;;;;;;;;;;;15.80;55.10;;;;;;10212286;28;94984;-62
2022/12/19 00:39:49;;;;;;;;;;;15.80;55.10;;;;;;10211186;28;94505;-63
2022/12/19 00:44:51;;;;;;;;;;;15.80;55.10;;;;;;10211663;28;92711;-62
2022/12/19 00:49:53;;;;;;;;;;;15.80;55.10;;;;;;10211207;28;93517;-62
2022/12/19 00:54:55;;;;;;;;;;;15.80;55.20;;;;;;10208793;28;93511;-63
2022/12/19 00:59:57;;;;;;;;;;;15.70;55.10;;;;;;10206456;28;96067;-62
2022/12/19 01:04:59;;;;;;;;;;;15.70;55.20;;;;;;10209596;28;94089;-62
2022/12/19 01:10:01;;;;;;;;;;;15.70;55.20;;;;;;10210099;28;93541;-63
2022/12/19 01:15:02;;;;;;;;;;;15.70;55.20;;;;;;10210222;28;93437;-63
2022/12/19 01:20:06;;;;;;;;;;;15.70;55.20;;;;;;10210608;28;93527;-62
2022/12/19 01:25:07;;;;;;;;;;;15.60;55.20;;;;;;10209111;28;93289;-63
2022/12/19 01:30:09;;;;;;;;;;;15.60;55.30;;;;;;10210108;28;93470;-63
2022/12/19 01:35:11;;;;;;;;;;;15.60;55.20;;;;;;10210024;28;93888;-64
2022/12/19 01:40:22;;;;;;;;;;;15.60;55.20;;;;;;10209523;28;94792;-63
2022/12/19 01:45:26;;;;;;;;;;;15.60;55.20;;;;;;10207062;28;93516;-63
2022/12/19 01:50:37;;;;;;;;;;;15.60;55.00;;;;;;10206183;28;97473;-63
2022/12/19 01:55:43;;;;;;;;;;;15.70;55.00;;;;;;10208309;28;93506;-63
2022/12/19 02:06:07;;;;;;;;;;;15.70;54.80;;;;;;10325890;23;95340;-62
2022/12/19 02:11:08;;;;;;;;;;;15.60;54.80;;;;;;10168591;28;93578;-62
2022/12/19 02:16:23;;;;;;;;;;;15.60;54.90;;;;;;10169455;28;94223;-62
2022/12/19 02:21:38;;;;;;;;;;;15.60;54.80;;;;;;10169019;28;94441;-62
2022/12/19 02:26:58;;;;;;;;;;;15.60;54.80;;;;;;10169610;28;93515;-62
2022/12/19 02:32:26;;;;;;;;;;;15.50;54.80;;;;;;10168667;28;93883;-61
2022/12/19 02:37:33;;;;;;;;;;;15.50;54.90;;;;;;10164388;28;93307;-63
2022/12/19 02:42:37;;;;;;;;;;;15.50;55.00;;;;;;10165911;28;96823;-62
2022/12/19 02:47:39;;;;;;;;;;;15.50;56.00;;;;;;10167722;28;94599;-62
2022/12/19 02:52:42;;;;;;;;;;;15.50;55.20;;;;;;10168723;28;94571;-62
2022/12/19 02:57:51;;;;;;;;;;;15.40;55.20;;;;;;10165539;28;93556;-62
2022/12/19 03:02:59;;;;;;;;;;;15.40;55.30;;;;;;10164773;28;93534;-62
2022/12/19 03:08:04;;;;;;;;;;;15.40;55.20;;;;;;10165184;28;93453;-62
2022/12/19 03:13:10;;;;;;;;;;;15.40;55.30;;;;;;10168697;28;93605;-62
2022/12/19 03:18:12;;;;;;;;;;;15.30;55.30;;;;;;10168724;28;92735;-62
2022/12/19 03:23:14;;;;;;;;;;;15.40;55.40;;;;;;10167819;28;93536;-62
2022/12/19 03:28:25;;;;;;;;;;;15.50;55.30;;;;;;10167017;28;94664;-62
2022/12/19 03:33:28;;;;;;;;;;;15.50;55.20;;;;;;10163780;28;95835;-62
2022/12/19 03:38:30;;;;;;;;;;;15.50;55.10;;;;;;10166714;28;93439;-62
2022/12/19 03:43:33;;;;;;;;;;;15.50;55.10;;;;;;10165814;28;93533;-63
2022/12/19 03:48:49;;;;;;;;;;;15.50;55.10;;;;;;10166267;28;93723;-63
2022/12/19 03:53:50;;;;;;;;;;;15.40;55.20;;;;;;10166081;28;93483;-62
2022/12/19 03:58:57;;;;;;;;;;;15.40;55.30;;;;;;10166736;28;92826;-63
2022/12/19 04:03:59;;;;;;;;;;;15.40;55.30;;;;;;10165960;28;93957;-62
2022/12/19 04:09:01;;;;;;;;;;;15.40;55.30;;;;;;10168170;28;92404;-63
2022/12/19 04:14:06;;;;;;;;;;;15.40;55.30;;;;;;10165278;28;94536;-62
2022/12/19 04:19:15;;;;;;;;;;;15.30;55.30;;;;;;10169468;28;93481;-62
2022/12/19 04:24:23;;;;;;;;;;;15.30;55.50;;;;;;10169575;28;97397;-63
2022/12/19 04:29:25;;;;;;;;;;;15.30;55.60;;;;;;10172556;28;93448;-62
2022/12/19 04:34:27;;;;;;;;;;;15.30;55.60;;;;;;10172074;28;93310;-63
2022/12/19 04:39:29;;;;;;;;;;;15.20;55.60;;;;;;10170320;28;93443;-62
2022/12/19 04:44:30;;;;;;;;;;;15.20;55.60;;;;;;10171482;28;94449;-62
2022/12/19 06:06:57;;;;;;;;;;;16.40;54.50;;;;;;10166359;28;93590;-62
2022/12/19 06:11:59;;;;;;;;;;;16.60;53.90;;;;;;10169149;28;93554;-62
2022/12/19 06:17:01;;;;;;;;;;;16.60;53.70;;;;;;10166653;28;94587;-62
2022/12/19 06:22:02;;;;;;;;;;;16.70;53.80;;;;;;10166669;28;96738;-62
2022/12/19 06:27:04;;;;;;;;;;;16.60;53.90;;;;;;10166280;28;93405;-62
2022/12/19 06:32:06;;;;;;;;;;;16.50;54.00;;;;;;10166653;28;93937;-63
2022/12/19 06:37:10;;;;;;;;;;;16.50;54.30;;;;;;10168186;28;93023;-62
2022/12/19 06:42:21;;;;;;;;;;;16.50;54.40;;;;;;10166704;28;94676;-62
2022/12/19 06:47:23;;;;;;;;;;;16.50;54.40;;;;;;10166504;28;94217;-62
2022/12/19 06:52:25;;;;;;;;;;;16.50;54.60;;;;;;10164539;28;93561;-62
2022/12/19 06:57:27;;;;;;;;;;;16.40;54.70;;;;;;10150085;28;92507;-63
2022/12/19 07:02:30;;;;;;;;;;;16.40;55.00;;;;;;10166382;28;93514;-63
2022/12/19 07:07:32;;;;;;;;;;;16.50;56.20;;;;;;10165082;28;93736;-63
2022/12/19 07:12:34;;;;;;;;;;;16.50;56.80;;;;;;10163659;28;96187;-61
2022/12/19 07:17:36;;;;;;;;;;;16.50;57.10;;;;;;10165894;28;94298;-62
2022/12/19 07:22:38;;;;;;;;;;;16.40;57.40;;;;;;10167326;28;94211;-64
2022/12/19 07:27:39;;;;;;;;;;;16.40;57.90;;;;;;10165603;28;94601;-64
2022/12/19 07:32:41;;;;;;;;;;;16.30;57.80;;;;;;10165012;28;93767;-64
2022/12/19 07:37:43;;;;;;;;;;;16.30;57.90;;;;;;10165559;28;93525;-64
2022/12/19 07:42:45;;;;;;;;;;;16.20;58.10;;;;;;10165939;28;93659;-63
2022/12/19 07:47:46;;;;;;;;;;;16.20;58.30;;;;;;10166053;28;93774;-64
2022/12/19 07:52:48;;;;;;;;;;;16.10;58.20;;;;;;10167834;28;94487;-63
2022/12/19 07:57:50;;;;;;;;;;;16.00;58.20;;;;;;10171860;28;93458;-64
2022/12/19 08:02:51;;;;;;;;;;;16.00;57.80;;;;;;10169520;28;96947;-64
2022/12/19 08:07:54;;;;;;;;;;;15.90;57.90;;;;;;10172361;28;93198;-63
2022/12/19 08:12:55;;;;;;;;;;;15.80;58.00;;;;;;10172559;28;93281;-64
2022/12/19 08:17:57;;;;;;;;;;;15.80;58.10;;;;;;10171321;28;93556;-64
2022/12/19 08:23:00;;;;;;;;;;;15.80;58.30;;;;;;10172690;28;93851;-64
2022/12/19 08:28:01;;;;;;;;;;;15.70;58.50;;;;;;10171710;28;94488;-63
2022/12/19 08:33:04;;;;;;;;;;;15.60;58.60;;;;;;10170357;28;93862;-63
2022/12/19 08:38:06;;;;;;;;;;;15.60;58.60;;;;;;10172460;28;93052;-64
2022/12/19 08:43:07;;;;;;;;;;;15.60;58.80;;;;;;10172053;28;93452;-64
2022/12/19 08:48:09;;;;;;;;;;;15.50;59.00;;;;;;10171041;28;93305;-64
2022/12/19 08:53:11;;;;;;;;;;;15.50;59.10;;;;;;10168967;28;95839;-64
2022/12/19 08:58:13;;;;;;;;;;;15.40;59.10;;;;;;10169764;28;93932;-62
2022/12/19 09:03:14;;;;;;;;;;;15.40;59.30;;;;;;10169873;28;94451;-64
2022/12/19 09:08:19;;;;;;;;;;;15.30;59.40;;;;;;10170289;28;94460;-63
2022/12/19 09:13:21;;;;;;;;;;;15.30;59.40;;;;;;10170567;28;93232;-64
2022/12/19 09:18:22;;;;;;;;;;;15.30;59.50;;;;;;10170686;28;93789;-64
2022/12/19 09:23:28;;;;;;;;;;;15.20;59.50;;;;;;10152729;28;93121;-64
2022/12/19 09:28:30;;;;;;;;;;;15.20;59.70;;;;;;10171611;28;93227;-64
2022/12/19 09:33:33;;;;;;;;;;;15.20;59.70;;;;;;10171267;28;94312;-64
2022/12/19 09:38:44;;;;;;;;;;;15.20;59.70;;;;;;10169794;28;94450;-63
2022/12/19 09:43:49;;;;;;;;;;;15.20;59.60;;;;;;10166523;28;96871;-63
2022/12/19 09:48:55;;;;;;;;;;;15.20;59.80;;;;;;10169327;28;94475;-64
2022/12/19 09:54:00;;;;;;;;;;;15.10;59.70;;;;;;10167578;28;93495;-64
2022/12/19 09:59:28;;;;;;;;;;;15.10;59.80;;;;;;10168667;28;94538;-63
2022/12/19 10:04:46;;;;;;;;;;;15.20;60.00;;;;;;10168739;28;93605;-63
2022/12/19 10:09:52;;;;;;;;;;;15.10;59.90;;;;;;10169566;28;94394;-64
2022/12/19 10:15:21;;;;;;;;;;;15.10;59.90;;;;;;10167760;28;95853;-64
2022/12/19 10:20:28;;;;;;;;;;;15.10;59.90;;;;;;10169870;28;93850;-63
2022/12/19 10:25:38;;;;;;;;;;;15.10;59.90;;;;;;10168125;28;92580;-64
2022/12/19 10:30:43;;;;;;;;;;;15.10;59.90;;;;;;10167236;28;94875;-64
2022/12/19 10:35:51;;;;;;;;;;;15.10;59.90;;;;;;10165316;28;97306;-63
2022/12/19 10:41:15;;;;;;;;;;;15.10;59.90;;;;;;10167982;28;93425;-63
2022/12/19 10:46:22;;;;;;;;;;;15.10;59.90;;;;;;10167969;28;94595;-63
2022/12/19 10:51:26;;;;;;;;;;;15.10;60.50;;;;;;10168092;28;94502;-64
2022/12/19 10:56:29;;;;;;;;;;;15.00;60.00;;;;;;10165712;28;94680;-63
2022/12/19 11:01:38;;;;;;;;;;;15.00;60.00;;;;;;10167294;28;93310;-64
2022/12/19 11:06:45;;;;;;;;;;;15.00;60.00;;;;;;10166542;28;93558;-64
2022/12/19 11:11:47;;;;;;;;;;;15.00;59.90;;;;;;10166801;28;92752;-64
2022/12/19 11:17:26;;;;;;;;;;;15.00;60.00;;;;;;10167276;28;95279;-64
2022/12/19 11:22:52;;;;;;;;;;;15.00;60.00;;;;;;10166953;28;93859;-64
2022/12/19 11:28:19;;;;;;;;;;;15.00;60.00;;;;;;10166052;28;95827;-63
2022/12/19 11:33:44;;;;;;;;;;;15.00;60.00;;;;;;10174691;28;95582;-63
2022/12/19 11:38:52;;;;;;;;;;;15.00;60.00;;;;;;10173093;28;93536;-63
2022/12/19 11:43:57;;;;;;;;;;;15.00;60.00;;;;;;10174632;28;93786;-63
2022/12/19 11:49:08;;;;;;;;;;;14.90;60.00;;;;;;10173726;28;94915;-63
2022/12/19 11:54:23;;;;;;;;;;;15.00;60.10;;;;;;10173367;28;92610;-63
2022/12/19 11:59:25;;;;;;;;;;;14.90;60.10;;;;;;10173034;28;94202;-63
2022/12/19 12:04:40;;;;;;;;;;;14.90;60.10;;;;;;10173258;28;93810;-63
2022/12/19 12:09:52;;;;;;;;;;;14.90;60.10;;;;;;10171428;28;93595;-63
2022/12/19 12:15:32;;;;;;;;;;;14.90;60.20;;;;;;10171728;28;96008;-63
2022/12/19 12:21:06;;;;;;;;;;;14.90;60.20;;;;;;10170380;28;97364;-63
2022/12/19 12:26:31;;;;;;;;;;;14.90;60.20;;;;;;10171880;28;95352;-63
2022/12/19 12:32:14;;;;;;;;;;;14.90;60.20;;;;;;10168711;28;95031;-63
2022/12/19 12:37:38;;;;;;;;;;;14.90;60.30;;;;;;10170727;28;95595;-63
2022/12/19 12:43:06;;;;;;;;;;;14.90;60.30;;;;;;10172096;28;93600;-63
2022/12/19 12:48:27;;;;;;;;;;;14.90;60.30;;;;;;10170973;28;93278;-63
2022/12/19 12:53:34;;;;;;;;;;;14.90;60.30;;;;;;10171053;28;93421;-63
2022/12/19 12:58:47;;;;;;;;;;;14.80;60.30;;;;;;10172002;28;93923;-62
2022/12/19 13:03:54;;;;;;;;;;;14.80;60.30;;;;;;10170977;28;93631;-63
2022/12/19 13:09:16;;;;;;;;;;;14.80;60.30;;;;;;10168911;28;93548;-63
2022/12/19 13:14:33;;;;;;;;;;;14.90;60.30;;;;;;10163500;28;95728;-63
2022/12/19 13:19:50;;;;;;;;;;;14.80;60.30;;;;;;10169636;28;93579;-63
2022/12/19 13:24:53;;;;;;;;;;;14.80;60.40;;;;;;10169781;28;93883;-63
2022/12/19 13:29:55;;;;;;;;;;;14.80;60.30;;;;;;10170216;28;95588;-63
2022/12/19 13:35:00;;;;;;;;;;;14.80;60.30;;;;;;10169722;28;94628;-63
2022/12/19 13:40:41;;;;;;;;;;;14.80;60.30;;;;;;10170386;28;95948;-63
2022/12/19 13:45:47;;;;;;;;;;;14.80;60.30;;;;;;10169601;28;94490;-63
2022/12/19 13:50:50;;;;;;;;;;;14.80;60.40;;;;;;10168157;28;93667;-63
2022/12/19 13:55:59;;;;;;;;;;;14.80;60.30;;;;;;10168223;28;93464;-63
2022/12/19 14:01:03;;;;;;;;;;;14.80;60.40;;;;;;10168334;28;94170;-63
2022/12/19 14:06:09;;;;;;;;;;;14.80;60.40;;;;;;10163623;28;95546;-63
2022/12/19 14:11:19;;;;;;;;;;;14.80;60.40;;;;;;10165268;28;92446;-63
2022/12/19 14:16:41;;;;;;;;;;;14.80;60.50;;;;;;10165890;28;93237;-63
2022/12/19 14:21:45;;;;;;;;;;;14.80;60.50;;;;;;10165953;28;93464;-63
2022/12/19 14:27:12;;;;;;;;;;;14.80;60.50;;;;;;10165587;28;93737;-63
2022/12/19 14:32:35;;;;;;;;;;;14.70;60.50;;;;;;10165689;28;95042;-63
2022/12/19 14:37:59;;;;;;;;;;;14.70;60.40;;;;;;10177390;28;97006;-63
2022/12/19 14:43:40;;;;;;;;;;;14.70;60.40;;;;;;10165845;28;92603;-63
2022/12/19 14:49:20;;;;;;;;;;;14.70;60.40;;;;;;10165793;28;96285;-62
2022/12/19 14:54:42;;;;;;;;;;;14.70;60.40;;;;;;10166668;28;95335;-63
2022/12/19 15:00:20;;;;;;;;;;;14.70;60.40;;;;;;10162276;28;96577;-63
2022/12/19 15:05:42;;;;;;;;;;;14.70;60.50;;;;;;10074495;28;2601052;-63
2022/12/19 15:10:44;;;;;;;;;;;14.70;60.40;;;;;;10166114;28;94225;-63
2022/12/19 15:16:21;;;;;;;;;;;14.70;60.50;;;;;;10166959;28;95651;-63
2022/12/19 15:21:23;;;;;;;;;;;14.70;60.40;;;;;;10168351;28;93187;-63
2022/12/19 15:26:29;;;;;;;;;;;14.70;60.50;;;;;;10166691;28;93606;-63
2022/12/19 15:31:34;;;;;;;;;;;14.70;60.50;;;;;;10181657;28;94117;-63
2022/12/19 15:36:36;;;;;;;;;;;14.70;60.50;;;;;;10166351;28;92711;-63
2022/12/19 15:41:38;;;;;;;;;;;14.70;60.60;;;;;;10166986;28;93509;-63
2022/12/19 15:46:40;;;;;;;;;;;14.70;60.60;;;;;;10165629;28;93889;-64
2022/12/19 15:51:49;;;;;;;;;;;14.70;60.50;;;;;;10163151;28;96321;-64
2022/12/19 15:56:52;;;;;;;;;;;14.70;60.50;;;;;;10165599;28;94100;-63
2022/12/19 16:01:55;;;;;;;;;;;14.60;60.50;;;;;;10162568;28;94446;-64
2022/12/19 16:06:57;;;;;;;;;;;14.60;60.50;;;;;;10164757;28;93460;-64
2022/12/19 16:11:58;;;;;;;;;;;14.60;60.50;;;;;;10180379;28;92887;-63
2022/12/19 16:17:00;;;;;;;;;;;14.60;60.50;;;;;;10170650;28;94459;-63
2022/12/19 16:22:09;;;;;;;;;;;14.60;60.50;;;;;;10172529;28;94427;-63
2022/12/19 16:27:19;;;;;;;;;;;14.60;60.70;;;;;;10172336;28;93789;-63
2022/12/19 16:32:22;;;;;;;;;;;14.60;60.60;;;;;;10171439;28;94534;-64
2022/12/19 16:37:25;;;;;;;;;;;14.60;60.70;;;;;;10172816;28;93384;-64
2022/12/19 16:42:33;;;;;;;;;;;14.60;60.50;;;;;;10169112;28;96033;-64
2022/12/19 16:47:34;;;;;;;;;;;14.60;60.50;;;;;;10171108;28;93413;-64
2022/12/19 16:52:36;;;;;;;;;;;14.70;60.60;;;;;;10170261;28;93150;-64
2022/12/19 16:57:44;;;;;;;;;;;14.90;60.30;;;;;;10171291;28;94316;-64
2022/12/19 17:02:48;;;;;;;;;;;15.20;60.00;;;;;;10169544;28;93492;-64
2022/12/19 17:07:51;;;;;;;;;;;15.40;59.40;;;;;;10170621;28;93584;-64
2022/12/19 17:12:53;;;;;;;;;;;15.60;58.90;;;;;;10170323;28;93629;-64
2022/12/19 17:17:56;;;;;;;;;;;15.90;58.60;;;;;;10170852;28;93862;-64
2022/12/19 17:22:58;;;;;;;;;;;16.10;58.20;;;;;;10171111;28;93554;-64
2022/12/19 17:28:00;;;;;;;;;;;16.30;57.80;;;;;;10168466;28;94411;-64
2022/12/19 17:33:02;;;;;;;;;;;16.40;57.50;;;;;;10166192;28;96736;-64
2022/12/19 17:38:04;;;;;;;;;;;16.50;57.50;;;;;;10170814;28;94193;-64
2022/12/19 17:43:06;;;;;;;;;;;16.50;57.30;;;;;;10152476;28;92649;-64
2022/12/19 17:48:18;;;;;;;;;;;16.50;57.40;;;;;;10169871;28;94410;-64
2022/12/19 17:53:20;;;;;;;;;;;16.60;57.30;;;;;;10169141;28;94761;-64
2022/12/19 17:58:22;;;;;;;;;;;16.60;57.20;;;;;;10169979;28;94504;-64
2022/12/19 18:03:25;;;;;;;;;;;16.80;57.10;;;;;;10169067;28;94173;-64
2022/12/19 18:08:28;;;;;;;;;;;16.90;56.90;;;;;;10169778;28;93470;-64
2022/12/19 18:13:30;;;;;;;;;;;17.00;56.80;;;;;;10168850;28;95125;-64
2022/12/19 18:18:35;;;;;;;;;;;17.00;56.70;;;;;;10168105;28;95011;-62
2022/12/19 18:23:36;;;;;;;;;;;17.00;56.80;;;;;;10164313;28;96879;-64
2022/12/19 18:28:38;;;;;;;;;;;16.90;58.90;;;;;;10168397;28;94460;-64
2022/12/19 18:33:41;;;;;;;;;;;17.00;60.60;;;;;;10168793;28;94531;-65
2022/12/19 18:38:43;;;;;;;;;;;17.20;60.30;;;;;;10165321;28;94516;-65
2022/12/19 18:43:45;;;;;;;;;;;17.40;58.90;;;;;;10164076;28;94455;-65
2022/12/19 18:48:47;;;;;;;;;;;17.60;58.00;;;;;;10166474;28;94452;-65
2022/12/19 18:53:50;;;;;;;;;;;17.60;57.60;;;;;;10150086;28;94444;-64
2022/12/19 18:58:52;;;;;;;;;;;17.60;57.50;;;;;;10168047;28;93814;-65
2022/12/19 19:03:55;;;;;;;;;;;17.50;57.60;;;;;;10164934;28;93049;-65
2022/12/19 19:08:57;;;;;;;;;;;17.50;57.70;;;;;;10167896;28;95070;-66
2022/12/19 19:13:59;;;;;;;;;;;17.60;57.60;;;;;;10164022;28;97000;-66
2022/12/19 19:19:03;;;;;;;;;;;17.60;57.50;;;;;;10166213;28;94163;-65
2022/12/19 19:24:06;;;;;;;;;;;17.60;57.50;;;;;;10165733;28;94071;-65
2022/12/19 19:29:08;;;;;;;;;;;17.60;57.50;;;;;;10165378;28;94479;-65
2022/12/19 19:34:15;;;;;;;;;;;17.60;57.50;;;;;;10165398;28;93555;-66
2022/12/19 19:39:18;;;;;;;;;;;17.60;57.40;;;;;;10165579;28;94028;-65
2022/12/19 19:44:20;;;;;;;;;;;17.60;57.40;;;;;;10165449;28;92695;-65
2022/12/19 19:49:22;;;;;;;;;;;17.70;57.40;;;;;;10168389;28;92583;-66
2022/12/19 19:54:24;;;;;;;;;;;17.60;57.40;;;;;;10172002;28;93162;-65
2022/12/19 19:59:30;;;;;;;;;;;17.60;57.40;;;;;;10170775;28;92843;-65
2022/12/19 20:04:31;;;;;;;;;;;17.50;57.60;;;;;;10167667;28;97294;-66
2022/12/19 20:09:33;;;;;;;;;;;17.50;57.80;;;;;;10172366;28;93517;-65
2022/12/19 20:14:35;;;;;;;;;;;17.50;58.00;;;;;;10171894;28;94463;-66
2022/12/19 20:19:37;;;;;;;;;;;17.60;57.90;;;;;;10171343;28;93641;-65
2022/12/19 20:24:38;;;;;;;;;;;17.70;57.60;;;;;;10171862;28;94283;-66
2022/12/19 20:29:40;;;;;;;;;;;17.80;57.40;;;;;;10170422;28;94021;-66
2022/12/19 20:34:42;;;;;;;;;;;17.70;57.50;;;;;;10169962;28;93498;-65
2022/12/19 20:39:44;;;;;;;;;;;17.70;57.70;;;;;;10168922;28;93767;-65
2022/12/19 20:44:45;;;;;;;;;;;17.60;57.80;;;;;;10169977;28;93265;-64
2022/12/19 20:49:47;;;;;;;;;;;17.60;57.90;;;;;;10171066;28;94075;-65
2022/12/19 20:54:49;;;;;;;;;;;17.60;58.00;;;;;;10165733;28;95770;-65
2022/12/19 20:59:51;;;;;;;;;;;17.50;58.20;;;;;;10169905;28;93951;-65
2022/12/19 21:04:53;;;;;;;;;;;17.30;58.40;;;;;;10170181;28;93219;-63
2022/12/19 21:09:56;;;;;;;;;;;17.20;58.70;;;;;;10153188;28;94494;-64
2022/12/19 21:14:58;;;;;;;;;;;17.10;59.10;;;;;;10170128;28;92519;-64
2022/12/19 21:20:00;;;;;;;;;;;17.00;59.40;;;;;;10169571;28;94968;-64
2022/12/19 21:25:02;;;;;;;;;;;16.80;59.60;;;;;;10170357;28;94289;-64
2022/12/19 21:30:03;;;;;;;;;;;16.80;60.00;;;;;;10169895;28;91847;-63
2022/12/19 21:35:05;;;;;;;;;;;16.70;60.30;;;;;;10169084;28;93459;-64
2022/12/19 21:40:07;;;;;;;;;;;16.60;60.40;;;;;;10184446;28;94011;-63
2022/12/19 21:45:09;;;;;;;;;;;16.50;60.50;;;;;;10165686;28;95932;-64
2022/12/19 21:50:12;;;;;;;;;;;16.50;60.70;;;;;;10168979;28;93427;-63
2022/12/19 21:55:14;;;;;;;;;;;16.40;60.90;;;;;;10183372;28;94665;-64
2022/12/19 22:00:16;;;;;;;;;;;16.30;61.00;;;;;;10169148;28;94682;-63
2022/12/19 22:05:18;;;;;;;;;;;16.30;61.10;;;;;;10168456;28;93774;-64
2022/12/19 22:10:19;;;;;;;;;;;16.30;61.30;;;;;;10168381;28;93486;-64
2022/12/19 22:15:21;;;;;;;;;;;16.20;61.40;;;;;;10183120;28;93544;-63
2022/12/19 22:20:23;;;;;;;;;;;16.20;61.50;;;;;;10168518;28;93766;-63
2022/12/19 22:25:25;;;;;;;;;;;16.10;61.60;;;;;;10168476;28;94373;-63
2022/12/19 22:30:27;;;;;;;;;;;16.10;61.70;;;;;;10168027;28;93516;-63
2022/12/19 22:35:28;;;;;;;;;;;16.10;61.80;;;;;;10163780;28;95896;-63
2022/12/19 22:40:31;;;;;;;;;;;16.00;61.60;;;;;;10167716;28;94166;-63
2022/12/19 22:45:33;;;;;;;;;;;16.00;61.60;;;;;;10166851;28;94038;-63
2022/12/19 22:50:35;;;;;;;;;;;15.90;61.60;;;;;;10162468;28;93602;-63
2022/12/19 22:55:37;;;;;;;;;;;15.90;61.60;;;;;;10162466;28;94605;-64
2022/12/19 23:00:39;;;;;;;;;;;15.90;61.60;;;;;;10161674;28;94554;-63
2022/12/19 23:05:40;;;;;;;;;;;15.80;61.80;;;;;;10162054;28;93562;-63
2022/12/19 23:10:50;;;;;;;;;;;15.80;61.70;;;;;;10166450;28;93310;-64
2022/12/19 23:15:52;;;;;;;;;;;15.80;61.80;;;;;;10166492;28;94491;-63
2022/12/19 23:21:00;;;;;;;;;;;15.70;61.90;;;;;;10166218;28;93743;-63
2022/12/19 23:26:04;;;;;;;;;;;15.70;61.90;;;;;;10169987;28;96957;-64
2022/12/19 23:31:12;;;;;;;;;;;15.70;62.10;;;;;;10172009;28;94438;-63
2022/12/19 23:36:14;;;;;;;;;;;15.60;61.90;;;;;;10172434;28;93442;-64
2022/12/19 23:41:16;;;;;;;;;;;15.60;62.10;;;;;;10172828;28;93013;-64
2022/12/19 23:46:19;;;;;;;;;;;15.60;62.10;;;;;;10172898;28;93447;-64
2022/12/19 23:51:23;;;;;;;;;;;15.50;62.00;;;;;;10173079;28;94503;-64
2022/12/19 23:56:27;;;;;;;;;;;15.60;62.10;;;;;;10171744;28;94469;-64
